createdAt,value
2018-07-25T00:02:00.531Z,39.37
2018-07-25T00:04:29.280Z,38.92
2018-07-25T00:06:57.836Z,39.80
2018-07-25T00:09:26.266Z,39.60
2018-07-25T00:11:54.756Z,51.03
2018-07-25T00:14:23.256Z,42.03
2018-07-25T00:16:51.695Z,41.40
2018-07-25T00:19:20.129Z,43.87
2018-07-25T00:21:48.589Z,42.03
2018-07-25T00:24:17.076Z,41.63
2018-07-25T00:26:45.611Z,40.88
2018-07-25T00:29:14.081Z,38.60
2018-07-25T00:31:42.559Z,38.88
2018-07-25T00:34:10.984Z,39.27
2018-07-25T00:36:39.429Z,39.50
2018-07-25T00:39:09.043Z,47.00
2018-07-25T00:41:37.559Z,42.60
2018-07-25T00:44:06.005Z,41.40
2018-07-25T00:46:34.491Z,42.25
2018-07-25T00:49:03.028Z,43.17
2018-07-25T00:51:31.883Z,45.33
2018-07-25T00:54:00.334Z,49.07
2018-07-25T00:56:28.808Z,44.60
2018-07-25T00:58:57.255Z,44.85
2018-07-25T01:01:25.678Z,46.13
2018-07-25T01:03:54.157Z,45.00
2018-07-25T01:06:22.619Z,57.83
2018-07-25T01:08:51.128Z,48.60
2018-07-25T01:11:19.614Z,47.00
2018-07-25T01:13:48.056Z,51.92
2018-07-25T01:16:16.687Z,58.60
2018-07-25T01:18:45.111Z,58.98
2018-07-25T01:21:13.879Z,51.27
2018-07-25T01:23:42.309Z,51.70
2018-07-25T01:26:10.763Z,55.67
2018-07-25T01:28:40.103Z,50.47
2018-07-25T01:31:08.983Z,58.50
2018-07-25T01:33:37.464Z,54.85
2018-07-25T01:36:05.929Z,50.50
2018-07-25T01:38:35.413Z,50.25
2018-07-25T01:41:03.895Z,51.20
2018-07-25T01:43:32.391Z,50.60
2018-07-25T01:46:00.957Z,54.23
2018-07-25T01:48:29.450Z,54.70
2018-07-25T01:50:58.374Z,57.20
2018-07-25T01:53:26.786Z,51.98
2018-07-25T01:55:55.291Z,50.83
2018-07-25T01:58:23.731Z,54.57
2018-07-25T02:00:52.235Z,50.60
2018-07-25T02:03:20.713Z,47.70
2018-07-25T02:05:49.123Z,47.63
2018-07-25T02:08:17.614Z,44.63
2018-07-25T02:10:46.665Z,49.10
2018-07-25T02:13:17.062Z,51.77
2018-07-25T02:15:46.160Z,53.38
2018-07-25T02:18:14.832Z,51.70
2018-07-25T02:20:43.272Z,58.90
2018-07-25T02:23:11.736Z,53.90
2018-07-25T02:25:40.135Z,56.47
2018-07-25T02:28:08.758Z,59.87
2018-07-25T02:30:37.212Z,63.40
2018-07-25T02:33:05.679Z,59.93
2018-07-25T02:35:34.116Z,55.73
2018-07-25T02:38:02.600Z,57.30
2018-07-25T02:40:31.072Z,70.47
2018-07-25T02:42:59.551Z,59.23
2018-07-25T02:45:32.172Z,55.53
2018-07-25T02:48:00.634Z,56.43
2018-07-25T02:50:29.128Z,59.80
2018-07-25T02:52:57.593Z,52.63
2018-07-25T02:55:26.077Z,44.13
2018-07-25T02:57:54.532Z,33.75
2018-07-25T03:00:23.013Z,34.47
2018-07-25T03:02:51.528Z,32.63
2018-07-25T03:05:20.212Z,34.13
2018-07-25T03:07:48.679Z,31.25
2018-07-25T03:10:17.164Z,33.02
2018-07-25T03:12:46.652Z,35.23
2018-07-25T03:15:15.111Z,31.07
2018-07-25T03:17:43.573Z,29.63
2018-07-25T03:20:12.025Z,30.13
2018-07-25T03:22:40.661Z,28.03
2018-07-25T03:25:09.111Z,29.90
2018-07-25T03:27:37.535Z,32.67
2018-07-25T03:30:06.747Z,34.00
2018-07-25T03:32:35.129Z,32.77
2018-07-25T03:35:03.850Z,42.30
2018-07-25T03:37:32.373Z,30.57
2018-07-25T03:40:00.778Z,34.23
2018-07-25T03:42:29.310Z,42.03
2018-07-25T03:44:57.723Z,64.90
2018-07-25T03:47:26.221Z,47.23
2018-07-25T03:49:54.643Z,35.78
2018-07-25T03:52:23.090Z,45.50
2018-07-25T03:54:52.472Z,35.03
2018-07-25T03:57:20.933Z,57.67
2018-07-25T03:59:49.507Z,81.40
2018-07-25T04:02:17.936Z,39.20
2018-07-25T04:04:46.397Z,42.67
2018-07-25T04:07:14.900Z,40.03
2018-07-25T04:09:43.568Z,41.03
2018-07-25T04:12:12.051Z,38.83
2018-07-25T04:14:40.480Z,47.17
2018-07-25T04:17:09.138Z,42.67
2018-07-25T04:19:37.739Z,39.40
2018-07-25T04:22:06.271Z,42.90
2018-07-25T04:24:34.758Z,39.53
2018-07-25T04:27:03.224Z,37.33
2018-07-25T04:29:31.678Z,42.67
2018-07-25T04:32:00.303Z,45.20
2018-07-25T04:34:28.782Z,42.50
2018-07-25T04:36:57.556Z,41.10
2018-07-25T04:39:26.068Z,41.77
2018-07-25T04:41:54.499Z,41.53
2018-07-25T04:44:22.938Z,43.42
2018-07-25T04:46:51.446Z,48.33
2018-07-25T04:49:19.903Z,43.00
2018-07-25T04:51:48.481Z,47.57
2018-07-25T04:54:16.978Z,44.53
2018-07-25T04:56:45.684Z,45.23
2018-07-25T04:59:14.540Z,43.77
2018-07-25T05:01:42.976Z,44.00
2018-07-25T05:04:11.507Z,44.33
2018-07-25T05:06:39.930Z,42.73
2018-07-25T05:09:10.532Z,43.77
2018-07-25T05:11:39.343Z,45.27
2018-07-25T05:14:08.408Z,43.15
2018-07-25T05:16:37.277Z,44.50
2018-07-25T05:19:06.068Z,46.60
2018-07-25T05:21:34.554Z,51.90
2018-07-25T05:24:03.902Z,55.88
2018-07-25T05:26:32.367Z,44.63
2018-07-25T05:29:00.810Z,41.23
2018-07-25T05:31:29.294Z,39.40
2018-07-25T05:33:57.962Z,42.70
2018-07-25T05:36:26.929Z,39.87
2018-07-25T05:38:55.390Z,38.97
2018-07-25T05:41:23.848Z,41.70
2018-07-25T05:43:52.306Z,41.50
2018-07-25T05:46:21.236Z,37.28
2018-07-25T05:48:49.939Z,41.93
2018-07-25T05:51:18.418Z,40.05
2018-07-25T05:53:47.065Z,40.03
2018-07-25T05:56:15.505Z,43.20
2018-07-25T05:58:44.031Z,41.03
2018-07-25T06:01:14.812Z,38.43
2018-07-25T06:03:43.351Z,45.30
2018-07-25T06:06:11.846Z,49.53
2018-07-25T06:08:40.342Z,44.07
2018-07-25T06:11:08.982Z,43.68
2018-07-25T06:13:38.040Z,40.67
2018-07-25T06:16:06.935Z,46.00
2018-07-25T06:18:35.807Z,43.50
2018-07-25T06:21:04.202Z,41.90
2018-07-25T06:23:32.683Z,45.20
2018-07-25T06:26:01.326Z,45.87
2018-07-25T06:28:29.740Z,46.10
2018-07-25T06:30:58.333Z,47.73
2018-07-25T06:33:27.559Z,39.80
2018-07-25T06:35:56.225Z,39.00
2018-07-25T06:38:25.058Z,39.53
2018-07-25T06:40:53.568Z,38.63
2018-07-25T06:43:22.030Z,44.00
2018-07-25T06:45:50.391Z,36.73
2018-07-25T06:48:19.060Z,39.53
2018-07-25T06:50:47.562Z,36.17
2018-07-25T06:53:16.017Z,34.00
2018-07-25T06:55:44.599Z,35.63
2018-07-25T06:58:13.243Z,37.60
2018-07-25T07:00:42.203Z,33.70
2018-07-25T07:03:10.675Z,33.73
2018-07-25T07:05:39.105Z,34.33
2018-07-25T07:08:07.569Z,34.00
2018-07-25T07:10:36.064Z,36.17
2018-07-25T07:13:04.659Z,32.77
2018-07-25T07:15:33.168Z,31.60
2018-07-25T07:18:01.627Z,33.17
2018-07-25T07:20:30.240Z,35.38
2018-07-25T07:22:58.721Z,32.00
2018-07-25T07:25:27.129Z,32.97
2018-07-25T07:27:55.559Z,32.73
2018-07-25T07:30:24.945Z,32.13
2018-07-25T07:32:53.681Z,28.67
2018-07-25T07:35:22.140Z,30.10
2018-07-25T07:37:50.658Z,30.53
2018-07-25T07:40:19.359Z,28.10
2018-07-25T07:42:47.828Z,29.40
2018-07-25T07:45:16.465Z,26.70
2018-07-25T07:47:44.995Z,28.20
2018-07-25T07:50:13.419Z,29.80
2018-07-25T07:52:41.910Z,27.40
2018-07-25T07:55:10.360Z,25.07
2018-07-25T07:57:38.804Z,24.82
2018-07-25T08:00:08.172Z,21.40
2018-07-25T08:02:37.275Z,23.53
2018-07-25T08:05:05.947Z,20.20
2018-07-25T08:07:34.355Z,23.73
2018-07-25T08:10:03.191Z,21.20
2018-07-25T08:12:32.003Z,20.50
2018-07-25T08:15:31.139Z,30.90
2018-07-25T08:18:00.417Z,25.33
2018-07-25T08:20:29.315Z,22.93
2018-07-25T08:22:57.764Z,25.80
2018-07-25T08:25:26.167Z,25.33
2018-07-25T08:27:54.595Z,22.17
2018-07-25T08:30:23.075Z,28.80
2018-07-25T08:32:51.532Z,19.13
2018-07-25T08:35:20.188Z,26.10
2018-07-25T08:37:48.779Z,18.20
2018-07-25T08:40:17.282Z,17.87
2018-07-25T08:42:45.732Z,25.63
2018-07-25T08:45:14.207Z,19.87
2018-07-25T08:47:42.679Z,16.23
2018-07-25T08:50:11.114Z,17.40
2018-07-25T08:52:39.961Z,23.83
2018-07-25T08:55:08.714Z,17.30
2018-07-25T08:57:37.110Z,16.10
2018-07-25T09:00:06.289Z,17.87
2018-07-25T09:02:34.726Z,16.90
2018-07-25T09:05:03.249Z,14.80
2018-07-25T09:07:31.850Z,15.13
2018-07-25T09:10:00.259Z,18.37
2018-07-25T09:12:28.919Z,15.70
2018-07-25T09:14:57.330Z,20.47
2018-07-25T09:17:25.911Z,15.90
2018-07-25T09:19:54.333Z,15.20
2018-07-25T09:22:22.799Z,14.87
2018-07-25T09:24:51.446Z,16.12
2018-07-25T09:27:19.867Z,18.80
2018-07-25T09:29:48.347Z,16.70
2018-07-25T09:32:16.792Z,18.70
2018-07-25T09:34:45.295Z,15.10
2018-07-25T09:37:13.924Z,21.57
2018-07-25T09:39:42.791Z,15.53
2018-07-25T09:42:11.255Z,14.75
2018-07-25T09:44:40.398Z,19.17
2018-07-25T09:47:09.017Z,20.50
2018-07-25T09:49:37.356Z,15.07
2018-07-25T09:52:05.823Z,20.33
2018-07-25T09:54:35.348Z,14.03
2018-07-25T09:57:04.357Z,18.00
2018-07-25T09:59:32.830Z,14.40
2018-07-25T10:02:01.299Z,16.70
2018-07-25T10:04:29.844Z,15.43
2018-07-25T10:06:58.543Z,15.20
2018-07-25T10:09:26.983Z,14.07
2018-07-25T10:11:55.447Z,11.77
2018-07-25T10:14:23.974Z,11.53
2018-07-25T10:16:52.606Z,11.83
2018-07-25T10:19:21.491Z,11.27
2018-07-25T10:21:50.008Z,14.67
2018-07-25T10:24:18.485Z,10.07
2018-07-25T10:26:46.954Z,10.93
2018-07-25T10:29:15.409Z,16.63
2018-07-25T10:31:44.218Z,17.40
2018-07-25T10:34:13.097Z,10.90
2018-07-25T10:36:41.586Z,10.57
2018-07-25T10:39:10.579Z,14.40
2018-07-25T10:41:39.159Z,12.10
2018-07-25T10:44:07.661Z,11.38
2018-07-25T10:46:36.152Z,10.10
2018-07-25T10:49:05.268Z,10.37
2018-07-25T10:51:33.767Z,10.73
2018-07-25T10:54:02.240Z,13.20
2018-07-25T10:56:30.710Z,13.43
2018-07-25T10:58:59.155Z,10.85
2018-07-25T11:01:27.726Z,9.75
2018-07-25T11:03:56.207Z,11.50
2018-07-25T11:06:25.126Z,8.03
2018-07-25T11:08:53.616Z,9.20
2018-07-25T11:11:22.066Z,8.60
2018-07-25T11:13:50.687Z,10.03
2018-07-25T11:16:19.145Z,5.97
2018-07-25T11:18:47.884Z,5.27
2018-07-25T11:21:16.291Z,5.80
2018-07-25T11:23:44.739Z,4.90
2018-07-25T11:26:13.195Z,6.30
2018-07-25T11:28:41.872Z,7.87
2018-07-25T11:31:10.323Z,9.67
2018-07-25T11:33:38.722Z,7.40
2018-07-25T11:36:07.271Z,10.93
2018-07-25T11:38:35.718Z,7.53
2018-07-25T11:41:04.198Z,8.90
2018-07-25T11:43:32.655Z,8.40
2018-07-25T11:46:01.091Z,5.90
2018-07-25T11:48:29.545Z,6.93
2018-07-25T11:50:58.227Z,5.53
2018-07-25T11:53:27.047Z,6.03
2018-07-25T11:55:55.530Z,5.20
2018-07-25T11:58:24.235Z,5.97
2018-07-25T12:00:52.660Z,7.15
2018-07-25T12:03:21.102Z,7.70
2018-07-25T12:05:49.547Z,6.80
2018-07-25T12:08:17.967Z,10.00
2018-07-25T12:10:46.375Z,8.60
2018-07-25T12:13:14.830Z,6.03
2018-07-25T12:15:43.277Z,5.47
2018-07-25T12:18:11.728Z,7.60
2018-07-25T12:20:40.131Z,6.70
2018-07-25T12:23:08.588Z,8.40
2018-07-25T12:25:37.066Z,9.43
2018-07-25T12:28:05.777Z,7.20
2018-07-25T12:30:48.820Z,7.47
2018-07-25T12:33:17.547Z,7.07
2018-07-25T12:35:46.005Z,8.07
2018-07-25T12:38:14.483Z,6.35
2018-07-25T12:40:43.038Z,5.73
2018-07-25T12:43:11.784Z,5.63
2018-07-25T12:45:40.444Z,5.80
2018-07-25T12:48:09.746Z,4.87
2018-07-25T12:50:38.436Z,6.63
2018-07-25T12:53:07.245Z,5.20
2018-07-25T12:55:35.679Z,6.20
2018-07-25T12:58:04.162Z,5.13
2018-07-25T13:00:33.167Z,4.73
2018-07-25T13:03:01.599Z,5.90
2018-07-25T13:05:30.036Z,4.93
2018-07-25T13:07:59.275Z,5.20
2018-07-25T13:10:27.727Z,4.50
2018-07-25T13:12:56.208Z,4.90
2018-07-25T13:15:25.017Z,5.37
2018-07-25T13:17:53.707Z,4.70
2018-07-25T13:20:22.399Z,5.27
2018-07-25T13:22:51.098Z,5.03
2018-07-25T13:25:20.172Z,4.33
2018-07-25T13:30:32.059Z,5.17
2018-07-25T13:33:00.827Z,4.90
2018-07-25T13:35:29.695Z,5.87
2018-07-25T13:37:58.161Z,5.90
2018-07-25T13:40:26.968Z,5.50
2018-07-25T13:42:55.660Z,4.90
2018-07-25T13:45:24.130Z,5.73
2018-07-25T13:47:52.739Z,5.97
2018-07-25T13:50:21.372Z,6.47
2018-07-25T13:52:50.305Z,7.30
2018-07-25T13:55:18.757Z,7.27
2018-07-25T13:57:47.208Z,7.00
2018-07-25T14:00:15.644Z,8.73
2018-07-25T14:02:44.088Z,7.67
2018-07-25T14:05:12.680Z,10.83
2018-07-25T14:07:41.109Z,9.40
2018-07-25T14:10:09.569Z,8.60
2018-07-25T14:12:38.079Z,11.40
2018-07-25T14:15:07.584Z,7.67
2018-07-25T14:17:36.083Z,8.83
2018-07-25T14:20:04.671Z,6.93
2018-07-25T14:22:33.095Z,10.43
2018-07-25T14:25:01.576Z,6.60
2018-07-25T14:27:30.191Z,8.57
2018-07-25T14:29:58.880Z,6.67
2018-07-25T14:32:27.754Z,7.50
2018-07-25T14:34:56.238Z,5.70
2018-07-25T14:37:24.724Z,5.85
2018-07-25T14:39:53.249Z,5.40
2018-07-25T14:42:21.737Z,7.17
2018-07-25T14:44:50.179Z,6.17
2018-07-25T14:47:18.889Z,5.63
2018-07-25T14:49:47.279Z,5.53
2018-07-25T14:52:15.861Z,11.20
2018-07-25T14:54:45.076Z,5.90
2018-07-25T14:57:13.664Z,9.30
2018-07-25T14:59:42.275Z,4.93
2018-07-25T15:02:10.736Z,5.20
2018-07-25T15:04:39.299Z,5.20
2018-07-25T15:07:07.787Z,5.55
2018-07-25T15:09:36.294Z,4.80
2018-07-25T15:12:04.966Z,5.50
2018-07-25T15:14:33.621Z,5.47
2018-07-25T15:17:02.169Z,5.80
2018-07-25T15:19:30.812Z,5.17
2018-07-25T15:21:59.311Z,4.40
2018-07-25T15:24:27.786Z,4.80
2018-07-25T15:26:56.610Z,5.20
2018-07-25T15:29:25.123Z,4.77
2018-07-25T15:31:53.498Z,5.37
2018-07-25T15:34:22.127Z,4.63
2018-07-25T15:36:52.152Z,5.20
2018-07-25T15:39:25.645Z,5.47
2018-07-25T15:41:55.947Z,6.22
2018-07-25T15:44:25.869Z,6.85
2018-07-25T15:46:54.353Z,32.67
2018-07-25T15:49:23.100Z,19.67
2018-07-25T15:51:51.630Z,21.00
2018-07-25T15:54:20.163Z,13.50
2018-07-25T15:56:48.642Z,29.63
2018-07-25T15:59:17.645Z,29.90
2018-07-25T16:01:46.300Z,14.73
2018-07-25T16:04:14.748Z,13.00
2018-07-25T16:06:43.299Z,12.47
2018-07-25T16:09:12.989Z,12.47
2018-07-25T16:11:42.163Z,19.73
2018-07-25T16:14:10.624Z,23.03
2018-07-25T16:16:39.044Z,10.87
2018-07-25T16:19:07.522Z,14.07
2018-07-25T16:21:36.018Z,11.17
2018-07-25T16:24:04.759Z,13.35
2018-07-25T16:26:33.187Z,12.03
2018-07-25T16:29:02.961Z,14.70
2018-07-25T16:31:31.452Z,13.40
2018-07-25T16:33:59.950Z,8.68
2018-07-25T16:36:28.440Z,9.87
2018-07-25T16:38:56.911Z,6.07
2018-07-25T16:41:26.274Z,12.15
2018-07-25T16:43:54.674Z,7.30
2018-07-25T16:46:23.633Z,11.83
2018-07-25T16:48:52.214Z,6.63
2018-07-25T16:51:20.675Z,7.10
2018-07-25T16:53:49.270Z,19.53
2018-07-25T16:56:17.706Z,9.33
2018-07-25T16:58:46.179Z,5.47
2018-07-25T17:01:14.630Z,10.73
2018-07-25T17:03:43.764Z,4.63
2018-07-25T17:06:12.215Z,4.67
2018-07-25T17:08:40.996Z,6.72
2018-07-25T17:11:09.470Z,4.87
2018-07-25T17:13:38.336Z,3.55
2018-07-25T17:16:06.897Z,7.20
2018-07-25T17:18:35.401Z,5.80
2018-07-25T17:21:04.116Z,4.90
2018-07-25T17:23:32.660Z,3.73
2018-07-25T17:26:01.583Z,14.70
2018-07-25T17:28:30.076Z,11.07
2018-07-25T17:30:58.702Z,8.23
2018-07-25T17:33:27.201Z,3.47
2018-07-25T17:35:55.658Z,4.15
2018-07-25T17:38:24.227Z,7.43
2018-07-25T17:40:52.699Z,4.73
2018-07-25T17:43:21.171Z,3.23
2018-07-25T17:45:49.655Z,3.87
2018-07-25T17:48:32.560Z,3.80
2018-07-25T17:51:01.032Z,4.27
2018-07-25T17:53:29.499Z,7.13
2018-07-25T17:55:58.622Z,7.93
2018-07-25T17:58:27.180Z,3.60
2018-07-25T18:00:55.886Z,3.67
2018-07-25T18:03:24.647Z,3.23
2018-07-25T18:05:53.257Z,9.40
2018-07-25T18:08:21.883Z,3.87
2018-07-25T18:10:52.045Z,6.17
2018-07-25T18:13:25.607Z,13.43
2018-07-25T18:15:54.165Z,4.87
2018-07-25T18:18:22.865Z,6.70
2018-07-25T18:20:51.381Z,6.05
2018-07-25T18:23:19.886Z,5.85
2018-07-25T18:25:48.407Z,6.53
2018-07-25T18:28:17.990Z,4.80
2018-07-25T18:30:46.437Z,6.87
2018-07-25T18:33:14.951Z,18.92
2018-07-25T18:35:43.439Z,11.05
2018-07-25T18:38:12.003Z,12.60
2018-07-25T18:40:41.229Z,5.50
2018-07-25T18:43:09.691Z,7.10
2018-07-25T18:45:38.467Z,6.90
2018-07-25T18:48:07.021Z,5.28
2018-07-25T18:50:35.510Z,8.90
2018-07-25T18:53:04.110Z,6.30
2018-07-25T18:55:32.578Z,9.03
2018-07-25T18:58:01.037Z,7.77
2018-07-25T19:00:29.739Z,9.07
2018-07-25T19:02:58.219Z,9.00
2018-07-25T19:05:30.932Z,10.10
2018-07-25T19:08:00.599Z,5.63
2018-07-25T19:10:29.209Z,8.60
2018-07-25T19:12:57.670Z,7.30
2018-07-25T19:15:33.396Z,14.77
2018-07-25T19:18:02.385Z,17.23
2018-07-25T19:20:30.823Z,26.73
2018-07-25T19:22:59.269Z,17.73
2018-07-25T19:25:27.720Z,17.73
2018-07-25T19:27:56.122Z,18.83
2018-07-25T19:30:24.588Z,16.60
2018-07-25T19:32:53.046Z,14.80
2018-07-25T19:35:21.708Z,18.83
2018-07-25T19:37:49.113Z,15.00
2018-07-25T19:40:17.556Z,9.80
2018-07-25T19:42:45.991Z,13.25
2018-07-25T19:45:14.442Z,10.40
2018-07-25T19:47:42.927Z,25.90
2018-07-25T19:50:11.429Z,9.40
2018-07-25T19:52:40.522Z,14.33
2018-07-25T19:55:09.000Z,14.68
2018-07-25T19:57:37.464Z,13.93
2018-07-25T20:00:06.347Z,9.80
2018-07-25T20:02:34.779Z,8.53
2018-07-25T20:05:03.398Z,20.25
2018-07-25T20:07:32.025Z,12.60
2018-07-25T20:10:00.503Z,11.27
2018-07-25T20:12:28.972Z,11.73
2018-07-25T20:15:03.110Z,13.40
2018-07-25T20:17:31.620Z,11.50
2018-07-25T20:20:00.077Z,11.38
2018-07-25T20:22:28.608Z,15.87
2018-07-25T20:24:57.059Z,15.33
2018-07-25T20:27:25.514Z,14.30
2018-07-25T20:29:53.975Z,11.10
2018-07-25T20:32:22.448Z,11.07
2018-07-25T20:34:50.977Z,13.87
2018-07-25T20:37:19.555Z,14.10
2018-07-25T20:39:47.975Z,17.03
2018-07-25T20:42:16.608Z,15.32
2018-07-25T20:44:44.997Z,19.00
2018-07-25T20:47:13.704Z,17.90
2018-07-25T20:49:42.131Z,15.60
2018-07-25T20:52:10.545Z,15.73
2018-07-25T20:54:39.095Z,16.80
2018-07-25T20:57:08.131Z,15.93
2018-07-25T20:59:36.604Z,16.90
2018-07-25T21:02:05.043Z,18.10
2018-07-25T21:04:33.476Z,20.73
2018-07-25T21:07:01.993Z,16.83
2018-07-25T21:09:30.519Z,22.47
2018-07-25T21:11:58.993Z,24.90
2018-07-25T21:14:27.427Z,15.80
2018-07-25T21:16:56.031Z,27.63
2018-07-25T21:19:24.499Z,18.87
2018-07-25T21:21:52.959Z,15.90
2018-07-25T21:24:21.418Z,21.30
2018-07-25T21:26:50.175Z,15.13
2018-07-25T21:29:18.657Z,16.42
2018-07-25T21:31:47.098Z,19.23
2018-07-25T21:34:15.590Z,13.50
2018-07-25T21:36:44.055Z,15.67
2018-07-25T21:39:13.654Z,16.77
2018-07-25T21:41:42.529Z,22.10
2018-07-25T21:44:11.260Z,15.73
2018-07-25T21:46:39.745Z,17.03
2018-07-25T21:49:08.524Z,17.82
2018-07-25T21:51:36.955Z,15.93
2018-07-25T21:54:05.876Z,22.75
2018-07-25T21:56:34.317Z,27.62
2018-07-25T21:59:02.933Z,21.63
2018-07-25T22:01:31.397Z,18.67
2018-07-25T22:03:59.831Z,22.03
2018-07-25T22:06:28.407Z,30.10
2018-07-25T22:08:56.844Z,31.90
2018-07-25T22:11:25.331Z,28.13
2018-07-25T22:13:56.830Z,29.40
2018-07-25T22:16:26.591Z,32.90
2018-07-25T22:18:55.492Z,29.40
2018-07-25T22:21:23.967Z,25.67
2018-07-25T22:23:52.495Z,27.53
2018-07-25T22:26:20.990Z,39.33
2018-07-25T22:28:49.651Z,27.13
2018-07-25T22:31:18.165Z,32.88
2018-07-25T22:33:46.662Z,35.40
2018-07-25T22:36:15.133Z,33.17
2018-07-25T22:38:43.560Z,29.90
2018-07-25T22:41:12.008Z,26.87
2018-07-25T22:43:40.444Z,26.13
2018-07-25T22:46:08.900Z,25.10
2018-07-25T22:48:37.396Z,16.83
2018-07-25T22:51:06.317Z,21.60
2018-07-25T22:53:34.785Z,24.17
2018-07-25T22:56:03.456Z,28.40
2018-07-25T22:58:32.066Z,29.47
2018-07-25T23:01:00.550Z,17.97
2018-07-25T23:03:29.024Z,22.48
2018-07-25T23:05:57.676Z,22.17
2018-07-25T23:08:26.148Z,23.33
2018-07-25T23:10:54.773Z,20.67
2018-07-25T23:13:23.323Z,24.73
2018-07-25T23:15:52.319Z,23.60
2018-07-25T23:18:20.731Z,28.83
2018-07-25T23:20:49.204Z,26.43
2018-07-25T23:23:17.629Z,26.73
2018-07-25T23:25:46.083Z,27.57
2018-07-25T23:28:14.770Z,23.87
2018-07-25T23:30:43.204Z,35.40
2018-07-25T23:33:11.671Z,36.77
2018-07-25T23:35:40.187Z,38.20
2018-07-25T23:38:08.763Z,39.90
2018-07-25T23:40:37.205Z,46.83
2018-07-25T23:43:05.627Z,33.50
2018-07-25T23:45:34.099Z,40.43
2018-07-25T23:48:02.511Z,46.60
2018-07-25T23:50:30.992Z,36.13
2018-07-25T23:52:59.516Z,34.40
2018-07-25T23:55:27.954Z,43.97
2018-07-25T23:57:56.604Z,33.43
